Time;durP1;ratioP1;P1;durP2;ratioP2;P2;SDS_P1;SDS_P2;PMS_P1;PMS_P2;Temp;Humidity;BMP_temperature;BMP_pressure;BME280_temperature;BME280_humidity;BME280_pressure;Samples;Min_cycle;Max_cycle;Signal;HPM_P1;HPM_P2
2022/07/04 00:51:50;;;;;;;;;;;19.60;45.10;;;;;;6265410;22;19986;-96
2022/07/04 00:54:21;;;;;;;;;;;19.50;45.30;;;;;;6268559;22;19915;-96
2022/07/04 00:59:32;;;;;;;;;;;19.50;45.70;;;;;;6240063;22;19919;-96
2022/07/04 02:38:55;;;;;;;;;;;18.50;47.80;;;;;;6272460;22;19922;-96
2022/07/04 02:41:24;;;;;;;;;;;18.60;47.80;;;;;;6266109;22;20248;-96
2022/07/04 04:09:18;;;;;;;;;;;20.30;51.30;;;;;;6196550;22;19916;-94
2022/07/04 04:55:51;;;;;;;;;;;26.90;45.30;;;;;;6218780;22;19916;-95
2022/07/04 04:58:16;;;;;;;;;;;27.40;44.70;;;;;;6255895;22;19999;-93
2022/07/04 05:00:42;;;;;;;;;;;27.90;43.90;;;;;;6256873;22;19923;-95
2022/07/04 05:05:41;;;;;;;;;;;28.80;42.70;;;;;;6265307;22;19907;-94
2022/07/04 05:08:20;;;;;;;;;;;29.40;42.20;;;;;;6234372;22;19960;-94
2022/07/04 05:18:49;;;;;;;;;;;31.20;39.80;;;;;;6205354;22;19920;-96
2022/07/04 05:21:18;;;;;;;;;;;31.70;39.10;;;;;;6203128;23;19920;-95
2022/07/04 10:25:38;;;;;;;;;;;49.20;12.60;;;;;;6283582;22;19919;-96
2022/07/04 11:11:59;;;;;;;;;;;45.30;13.10;;;;;;6233875;23;19943;-96
2022/07/04 11:14:43;;;;;;;;;;;44.40;13.50;;;;;;6222228;23;19944;-96
2022/07/04 11:17:11;;;;;;;;;;;43.40;14.00;;;;;;6196984;23;19916;-96
2022/07/04 11:19:37;;;;;;;;;;;42.40;14.50;;;;;;6192008;23;19904;-96
2022/07/04 11:22:08;;;;;;;;;;;41.50;15.10;;;;;;6191019;23;20537;-94
2022/07/04 11:24:39;;;;;;;;;;;40.70;15.60;;;;;;6200745;23;19979;-95
2022/07/04 11:27:07;;;;;;;;;;;40.30;15.90;;;;;;6230741;23;19908;-95
2022/07/04 11:29:34;;;;;;;;;;;39.80;16.40;;;;;;6199328;22;20340;-96
2022/07/04 11:32:05;;;;;;;;;;;39.20;16.80;;;;;;6197362;23;19922;-96
2022/07/04 11:36:56;;;;;;;;;;;38.60;17.50;;;;;;6258579;22;19916;-96
2022/07/04 11:39:22;;;;;;;;;;;39.30;17.60;;;;;;6228476;23;19943;-96
2022/07/04 11:47:31;;;;;;;;;;;39.30;17.20;;;;;;6259276;23;19922;-96
2022/07/04 11:49:58;;;;;;;;;;;39.40;17.40;;;;;;6236738;23;19919;-96
2022/07/04 11:52:49;;;;;;;;;;;40.40;17.10;;;;;;6242340;23;19912;-95
2022/07/04 12:18:44;;;;;;;;;;;42.30;15.30;;;;;;6231105;22;19970;-96
2022/07/04 12:21:19;;;;;;;;;;;43.00;15.00;;;;;;6270952;22;19931;-96
2022/07/04 13:08:02;;;;;;;;;;;43.30;13.70;;;;;;6277901;22;19927;-95
2022/07/04 13:10:32;;;;;;;;;;;42.60;13.90;;;;;;6287954;22;19918;-96
2022/07/04 13:13:01;;;;;;;;;;;42.00;14.40;;;;;;6289562;22;19915;-96
2022/07/04 13:28:33;;;;;;;;;;;41.00;14.90;;;;;;6250697;22;19923;-95
2022/07/04 13:31:01;;;;;;;;;;;40.30;15.30;;;;;;6255813;22;20030;-96
2022/07/04 13:33:31;;;;;;;;;;;40.70;15.50;;;;;;6286684;22;19907;-96
2022/07/04 13:35:57;;;;;;;;;;;41.40;15.00;;;;;;6261833;22;19921;-96
2022/07/04 13:38:23;;;;;;;;;;;42.10;14.70;;;;;;6285848;22;19943;-96
2022/07/04 13:40:51;;;;;;;;;;;42.70;14.60;;;;;;6268152;22;19935;-96
2022/07/04 13:43:27;;;;;;;;;;;43.10;14.20;;;;;;6243141;22;19915;-96
2022/07/04 13:45:56;;;;;;;;;;;43.30;13.90;;;;;;6270389;22;19910;-94
2022/07/04 13:48:24;;;;;;;;;;;43.00;13.70;;;;;;6280494;22;19903;-96
2022/07/04 13:50:57;;;;;;;;;;;42.80;13.80;;;;;;6270645;22;19921;-96
2022/07/04 13:53:27;;;;;;;;;;;42.90;13.70;;;;;;6270384;22;19923;-96
2022/07/04 13:55:53;;;;;;;;;;;42.90;13.70;;;;;;6271643;22;19915;-96
2022/07/04 13:58:23;;;;;;;;;;;43.00;13.70;;;;;;6269914;22;19910;-96
2022/07/04 14:00:50;;;;;;;;;;;42.60;13.80;;;;;;6271208;22;19915;-96
2022/07/04 14:03:20;;;;;;;;;;;42.30;14.10;;;;;;6271788;22;19942;-96
2022/07/04 14:10:55;;;;;;;;;;;42.80;13.70;;;;;;6301310;22;19919;-95
2022/07/04 14:13:27;;;;;;;;;;;42.70;13.60;;;;;;6267964;22;19899;-96
2022/07/04 14:15:57;;;;;;;;;;;42.50;13.60;;;;;;6271787;22;19918;-96
2022/07/04 14:18:24;;;;;;;;;;;42.40;13.80;;;;;;6298579;22;19919;-95
2022/07/04 14:20:51;;;;;;;;;;;42.10;14.00;;;;;;6271516;22;19970;-96
2022/07/04 14:26:08;;;;;;;;;;;41.50;14.30;;;;;;6298639;22;19910;-96
2022/07/04 14:28:34;;;;;;;;;;;40.80;14.60;;;;;;6267815;22;19923;-96
2022/07/04 14:31:00;;;;;;;;;;;40.20;15.00;;;;;;6268760;22;19907;-96
2022/07/04 14:33:30;;;;;;;;;;;39.70;15.40;;;;;;6267186;22;19906;-96
2022/07/04 14:35:55;;;;;;;;;;;39.20;15.70;;;;;;6242797;22;19911;-96
2022/07/04 14:38:25;;;;;;;;;;;38.70;16.00;;;;;;6297587;22;19931;-96
2022/07/04 14:41:09;;;;;;;;;;;38.30;16.50;;;;;;6295457;22;19930;-96
2022/07/04 14:43:38;;;;;;;;;;;37.80;16.80;;;;;;6248889;22;19938;-94
2022/07/04 14:46:08;;;;;;;;;;;37.50;17.10;;;;;;6270734;22;19919;-96
2022/07/04 14:48:45;;;;;;;;;;;37.30;17.30;;;;;;6269940;22;19934;-96
2022/07/04 14:51:16;;;;;;;;;;;37.10;17.60;;;;;;6271036;22;19911;-96
2022/07/04 14:53:43;;;;;;;;;;;36.90;17.80;;;;;;6271625;22;19919;-96
2022/07/04 14:56:14;;;;;;;;;;;36.70;18.00;;;;;;6268424;22;20011;-96
2022/07/04 14:58:51;;;;;;;;;;;36.60;18.10;;;;;;6269089;22;19934;-96
2022/07/04 15:01:19;;;;;;;;;;;36.50;18.10;;;;;;6263664;23;19931;-95
2022/07/04 15:03:45;;;;;;;;;;;36.40;18.20;;;;;;6265596;23;19912;-96
2022/07/04 15:06:21;;;;;;;;;;;36.30;18.40;;;;;;6265480;22;19919;-96
2022/07/04 15:08:52;;;;;;;;;;;36.30;18.50;;;;;;6239652;23;19915;-96
2022/07/04 15:11:21;;;;;;;;;;;36.20;18.50;;;;;;6265634;22;20361;-95
2022/07/04 15:14:00;;;;;;;;;;;36.20;18.60;;;;;;6264243;23;19923;-95
2022/07/04 15:16:28;;;;;;;;;;;36.10;18.70;;;;;;6241087;23;19906;-94
2022/07/04 15:18:54;;;;;;;;;;;36.20;18.80;;;;;;6266339;22;19911;-96
2022/07/04 15:24:10;;;;;;;;;;;36.00;18.90;;;;;;6265415;22;19927;-95
2022/07/04 15:26:43;;;;;;;;;;;35.90;19.10;;;;;;6264067;23;20147;-95
2022/07/04 15:29:14;;;;;;;;;;;35.90;19.20;;;;;;6265515;23;19918;-96
2022/07/04 15:31:48;;;;;;;;;;;35.80;19.50;;;;;;6241105;23;19922;-96
2022/07/04 15:34:21;;;;;;;;;;;35.80;19.60;;;;;;6257953;22;19963;-95
2022/07/04 15:36:48;;;;;;;;;;;35.80;19.70;;;;;;6263322;22;20000;-95
2022/07/04 15:39:18;;;;;;;;;;;35.70;19.70;;;;;;6264474;22;19907;-96
2022/07/04 15:41:57;;;;;;;;;;;35.60;19.80;;;;;;6294893;22;19962;-94
2022/07/04 15:44:26;;;;;;;;;;;35.40;19.90;;;;;;6267287;22;19911;-96
2022/07/04 15:49:37;;;;;;;;;;;35.40;20.00;;;;;;6292365;22;19938;-96
2022/07/04 15:52:08;;;;;;;;;;;35.30;20.00;;;;;;6265041;22;19933;-96
2022/07/04 15:54:34;;;;;;;;;;;35.30;20.10;;;;;;6264443;22;19907;-95
2022/07/04 15:57:00;;;;;;;;;;;35.30;20.30;;;;;;6265188;22;19968;-96
2022/07/04 15:59:26;;;;;;;;;;;35.20;20.40;;;;;;6266180;22;19918;-95
2022/07/04 16:02:11;;;;;;;;;;;35.20;20.40;;;;;;6292232;22;19911;-96
2022/07/04 16:04:42;;;;;;;;;;;35.20;20.40;;;;;;6262398;23;19912;-96
2022/07/04 16:07:41;;;;;;;;;;;35.10;20.50;;;;;;6218858;22;19951;-96
2022/07/04 16:10:13;;;;;;;;;;;35.00;20.60;;;;;;6233167;23;20249;-96
2022/07/04 16:18:15;;;;;;;;;;;34.70;21.10;;;;;;6220526;22;19927;-96
2022/07/04 16:20:48;;;;;;;;;;;34.70;21.20;;;;;;6272556;22;20409;-95
2022/07/04 16:23:46;;;;;;;;;;;34.50;21.30;;;;;;6271570;22;19934;-96
2022/07/04 16:26:24;;;;;;;;;;;34.50;21.40;;;;;;6263309;23;20232;-96
2022/07/04 16:29:10;;;;;;;;;;;34.30;21.60;;;;;;6286025;22;19926;-96
2022/07/04 16:39:38;;;;;;;;;;;33.90;22.00;;;;;;6238690;22;20639;-95
2022/07/04 16:42:13;;;;;;;;;;;33.70;22.20;;;;;;6255491;22;19962;-96
2022/07/04 16:44:43;;;;;;;;;;;33.50;22.30;;;;;;6294456;22;19908;-96
2022/07/04 16:47:45;;;;;;;;;;;33.30;22.60;;;;;;6268611;22;19912;-96
2022/07/04 16:50:16;;;;;;;;;;;33.10;22.80;;;;;;6249449;22;19918;-96
2022/07/04 16:52:57;;;;;;;;;;;32.90;23.00;;;;;;6201091;23;19916;-95
2022/07/04 16:55:41;;;;;;;;;;;32.80;23.30;;;;;;6178945;23;19916;-94
2022/07/04 16:58:11;;;;;;;;;;;32.60;23.40;;;;;;6218028;22;19907;-97
2022/07/04 17:03:46;;;;;;;;;;;32.30;23.90;;;;;;6234300;23;19912;-96
2022/07/04 17:06:41;;;;;;;;;;;32.20;24.20;;;;;;6202139;23;19912;-96
2022/07/04 17:09:16;;;;;;;;;;;32.10;24.40;;;;;;6264558;23;19912;-96
2022/07/04 17:14:41;;;;;;;;;;;31.70;25.10;;;;;;6266360;23;19942;-96
2022/07/04 17:17:17;;;;;;;;;;;31.50;25.20;;;;;;6287647;22;19927;-96
2022/07/04 17:20:07;;;;;;;;;;;31.30;25.40;;;;;;6298517;22;19919;-95
2022/07/04 17:25:40;;;;;;;;;;;31.10;25.60;;;;;;6234132;23;19898;-96
2022/07/04 17:28:19;;;;;;;;;;;30.90;26.00;;;;;;6208534;23;19896;-96
2022/07/04 18:03:58;;;;;;;;;;;30.20;27.20;;;;;;6236703;23;19923;-90
2022/07/04 18:06:25;;;;;;;;;;;30.10;27.20;;;;;;6224253;23;19943;-92
2022/07/04 18:08:51;;;;;;;;;;;30.00;27.30;;;;;;6224229;23;19958;-92
2022/07/04 18:11:20;;;;;;;;;;;30.00;27.40;;;;;;6222405;23;19912;-90
2022/07/04 18:13:45;;;;;;;;;;;29.90;27.60;;;;;;6222242;23;20335;-92
2022/07/04 18:16:11;;;;;;;;;;;29.80;27.60;;;;;;6222348;23;19908;-90
2022/07/04 18:18:39;;;;;;;;;;;29.80;27.70;;;;;;6221178;23;20331;-91
2022/07/04 18:21:05;;;;;;;;;;;29.70;27.90;;;;;;6246756;23;19974;-93
2022/07/04 18:23:32;;;;;;;;;;;29.60;28.10;;;;;;6222236;23;19911;-90
2022/07/04 18:25:57;;;;;;;;;;;29.50;28.20;;;;;;6248976;23;20285;-91
2022/07/04 18:28:23;;;;;;;;;;;29.40;28.30;;;;;;6250253;23;19916;-92
2022/07/04 18:31:00;;;;;;;;;;;29.30;28.50;;;;;;6216380;23;21774;-92
2022/07/04 18:33:26;;;;;;;;;;;29.30;28.50;;;;;;6224307;23;19930;-91
2022/07/04 18:35:52;;;;;;;;;;;29.20;28.50;;;;;;6249297;22;19911;-92
2022/07/04 18:38:19;;;;;;;;;;;29.10;28.60;;;;;;6248285;23;19934;-92
2022/07/04 18:43:29;;;;;;;;;;;29.00;29.00;;;;;;6250116;23;20231;-92
2022/07/04 18:45:55;;;;;;;;;;;28.80;29.00;;;;;;6247776;23;19942;-91
2022/07/04 18:48:22;;;;;;;;;;;28.80;29.10;;;;;;6222746;23;20324;-92
2022/07/04 18:50:48;;;;;;;;;;;28.70;29.20;;;;;;6249872;23;19916;-91
2022/07/04 18:53:14;;;;;;;;;;;28.60;29.20;;;;;;6222844;23;19913;-90
2022/07/04 18:55:39;;;;;;;;;;;28.50;29.30;;;;;;6222786;23;19914;-91
2022/07/04 18:58:05;;;;;;;;;;;28.40;29.40;;;;;;6247636;23;19915;-91
2022/07/04 19:00:30;;;;;;;;;;;28.30;29.40;;;;;;6246269;23;19920;-91
2022/07/04 19:02:56;;;;;;;;;;;28.30;29.50;;;;;;6221070;23;19915;-91
2022/07/04 19:05:21;;;;;;;;;;;28.20;29.70;;;;;;6220492;23;19962;-91
2022/07/04 19:07:47;;;;;;;;;;;28.10;29.80;;;;;;6220257;23;19947;-90
2022/07/04 19:10:15;;;;;;;;;;;28.00;29.90;;;;;;6246982;23;19907;-90
2022/07/04 19:12:41;;;;;;;;;;;27.80;30.10;;;;;;6221879;23;20316;-90
2022/07/04 19:15:13;;;;;;;;;;;27.80;30.10;;;;;;6220986;23;19907;-91
2022/07/04 19:17:39;;;;;;;;;;;27.70;30.30;;;;;;6246928;22;20244;-90
2022/07/04 19:20:05;;;;;;;;;;;27.50;30.40;;;;;;6220007;23;20217;-91
2022/07/04 19:22:31;;;;;;;;;;;27.40;30.40;;;;;;6218211;23;20338;-89
2022/07/04 19:24:59;;;;;;;;;;;27.30;30.60;;;;;;6243707;23;19990;-90
2022/07/04 19:27:25;;;;;;;;;;;27.20;30.60;;;;;;6219530;23;19946;-90
2022/07/04 19:29:51;;;;;;;;;;;27.00;30.80;;;;;;6244533;23;19912;-90
2022/07/04 19:32:16;;;;;;;;;;;26.90;30.90;;;;;;6245311;23;19938;-91
2022/07/04 19:34:43;;;;;;;;;;;26.80;30.90;;;;;;6245729;23;19999;-91
2022/07/04 19:37:08;;;;;;;;;;;26.70;31.00;;;;;;6219163;23;19982;-91
2022/07/04 19:39:34;;;;;;;;;;;26.60;31.00;;;;;;6218059;23;20333;-90
2022/07/04 19:42:00;;;;;;;;;;;26.40;31.20;;;;;;6219501;23;20320;-91
2022/07/04 19:44:25;;;;;;;;;;;26.30;31.20;;;;;;6219452;23;19918;-90
2022/07/04 19:46:52;;;;;;;;;;;26.20;31.20;;;;;;6218740;23;19908;-91
2022/07/04 19:49:19;;;;;;;;;;;26.10;31.40;;;;;;6221008;23;19915;-90
2022/07/04 19:54:28;;;;;;;;;;;25.90;31.80;;;;;;6249531;23;19954;-91
2022/07/04 19:56:55;;;;;;;;;;;25.80;32.60;;;;;;6220214;23;20283;-90
2022/07/04 19:59:20;;;;;;;;;;;25.70;33.10;;;;;;6219808;23;19916;-92
2022/07/04 20:01:46;;;;;;;;;;;25.50;33.90;;;;;;6247155;23;19912;-92
2022/07/04 20:04:12;;;;;;;;;;;25.40;34.50;;;;;;6221235;23;19927;-92
2022/07/04 20:06:37;;;;;;;;;;;25.40;35.10;;;;;;6219906;23;19951;-92
2022/07/04 20:09:03;;;;;;;;;;;25.30;35.50;;;;;;6219501;23;19908;-92
2022/07/04 20:11:28;;;;;;;;;;;25.30;35.80;;;;;;6220526;23;19908;-92
2022/07/04 20:13:54;;;;;;;;;;;25.20;36.00;;;;;;6219862;23;19953;-90
2022/07/04 20:16:21;;;;;;;;;;;25.10;36.40;;;;;;6220350;23;19916;-91
2022/07/04 20:18:46;;;;;;;;;;;25.10;36.60;;;;;;6220129;23;19912;-92
2022/07/04 20:21:12;;;;;;;;;;;25.00;36.70;;;;;;6221405;23;19958;-92
2022/07/04 20:23:37;;;;;;;;;;;24.90;36.70;;;;;;6247195;23;19989;-91
2022/07/04 20:26:03;;;;;;;;;;;24.80;36.90;;;;;;6220329;23;19948;-92
2022/07/04 20:28:28;;;;;;;;;;;24.70;37.10;;;;;;6219856;23;20303;-92
2022/07/04 20:30:55;;;;;;;;;;;24.70;37.10;;;;;;6245723;23;19911;-91
2022/07/04 20:33:20;;;;;;;;;;;24.60;37.20;;;;;;6246848;23;19912;-92
2022/07/04 20:35:46;;;;;;;;;;;24.50;37.10;;;;;;6219818;23;20291;-91
2022/07/04 20:38:11;;;;;;;;;;;24.40;37.60;;;;;;6220025;23;19916;-92
2022/07/04 20:40:37;;;;;;;;;;;24.30;37.60;;;;;;6219775;23;19923;-92
2022/07/04 20:43:02;;;;;;;;;;;24.30;37.60;;;;;;6219702;23;19911;-91
2022/07/04 20:45:35;;;;;;;;;;;24.20;37.70;;;;;;6218523;23;20296;-91
2022/07/04 20:48:03;;;;;;;;;;;24.10;38.00;;;;;;6246825;23;20343;-91
2022/07/04 20:50:28;;;;;;;;;;;24.00;37.90;;;;;;6218668;23;19912;-92
2022/07/04 20:52:57;;;;;;;;;;;23.90;37.80;;;;;;6246681;23;19908;-92
2022/07/04 20:55:22;;;;;;;;;;;23.80;37.70;;;;;;6219795;23;19919;-91
2022/07/04 20:57:48;;;;;;;;;;;23.80;37.90;;;;;;6189246;23;20217;-92
2022/07/04 21:00:14;;;;;;;;;;;23.70;37.90;;;;;;6196105;23;19912;-92
2022/07/04 21:02:40;;;;;;;;;;;23.60;38.00;;;;;;6248810;23;20600;-92
2022/07/04 21:05:06;;;;;;;;;;;23.50;38.40;;;;;;6221179;23;19912;-92
2022/07/04 21:07:31;;;;;;;;;;;23.50;38.40;;;;;;6220971;23;20312;-92
2022/07/04 21:09:58;;;;;;;;;;;23.40;38.30;;;;;;6247216;23;19912;-92
2022/07/04 21:14:50;;;;;;;;;;;23.20;38.50;;;;;;6248299;23;19907;-91
2022/07/04 21:17:15;;;;;;;;;;;23.20;38.70;;;;;;6246837;22;19907;-91
2022/07/04 21:19:41;;;;;;;;;;;23.10;38.80;;;;;;6247290;23;20324;-91
2022/07/04 21:22:06;;;;;;;;;;;23.00;38.60;;;;;;6245592;23;20005;-91
2022/07/04 21:24:32;;;;;;;;;;;23.00;38.70;;;;;;6247051;23;20459;-91
2022/07/04 21:26:57;;;;;;;;;;;22.90;38.60;;;;;;6224026;23;19908;-90
2022/07/04 21:29:23;;;;;;;;;;;22.90;38.70;;;;;;6246844;23;19980;-91
2022/07/04 21:31:48;;;;;;;;;;;22.80;38.70;;;;;;6246364;23;19912;-91
2022/07/04 21:34:14;;;;;;;;;;;22.70;38.50;;;;;;6246812;23;19931;-92
2022/07/04 21:36:40;;;;;;;;;;;22.70;38.40;;;;;;6248814;23;20386;-92
2022/07/04 21:39:05;;;;;;;;;;;22.60;38.20;;;;;;6247727;23;19938;-92
2022/07/04 21:41:31;;;;;;;;;;;22.50;38.10;;;;;;6248510;23;20344;-91
2022/07/04 21:43:57;;;;;;;;;;;22.40;38.00;;;;;;6248084;23;20248;-92
2022/07/04 21:46:22;;;;;;;;;;;22.30;37.90;;;;;;6251043;23;19911;-91
2022/07/04 21:48:48;;;;;;;;;;;22.30;37.90;;;;;;6199948;23;19962;-92
2022/07/04 21:51:13;;;;;;;;;;;22.20;37.80;;;;;;6205624;23;19943;-92
2022/07/04 21:53:39;;;;;;;;;;;22.10;37.90;;;;;;6262362;23;19908;-90
2022/07/04 21:56:05;;;;;;;;;;;22.00;37.90;;;;;;6213188;23;19943;-90
2022/07/04 21:58:34;;;;;;;;;;;22.00;37.80;;;;;;6264360;23;19939;-90
2022/07/04 22:00:59;;;;;;;;;;;22.00;37.70;;;;;;6261388;23;20002;-91
2022/07/04 22:03:25;;;;;;;;;;;21.90;37.70;;;;;;6252385;23;19907;-92
2022/07/04 22:05:50;;;;;;;;;;;21.80;37.80;;;;;;6251099;23;19912;-91
2022/07/04 22:08:17;;;;;;;;;;;21.70;37.90;;;;;;6251169;23;19957;-92
2022/07/04 22:10:43;;;;;;;;;;;21.60;37.90;;;;;;6253355;23;19912;-91
2022/07/04 22:13:14;;;;;;;;;;;21.50;37.90;;;;;;6252146;23;19986;-91
2022/07/04 22:15:39;;;;;;;;;;;21.40;37.90;;;;;;6227209;22;20042;-90
2022/07/04 22:18:08;;;;;;;;;;;21.30;38.00;;;;;;6253242;23;19908;-92
2022/07/04 22:20:34;;;;;;;;;;;21.30;38.10;;;;;;6246490;23;19912;-92
2022/07/04 22:23:02;;;;;;;;;;;21.20;38.10;;;;;;6220782;23;19951;-92
2022/07/04 22:25:28;;;;;;;;;;;21.20;38.20;;;;;;6246823;23;19908;-91
2022/07/04 22:27:53;;;;;;;;;;;21.10;38.30;;;;;;6218502;23;19914;-92
2022/07/04 22:30:19;;;;;;;;;;;21.00;38.40;;;;;;6221684;23;19915;-92
2022/07/04 22:32:44;;;;;;;;;;;20.90;38.50;;;;;;6250181;23;20236;-92
2022/07/04 22:35:10;;;;;;;;;;;20.90;38.60;;;;;;6250319;23;20312;-92
2022/07/04 22:37:36;;;;;;;;;;;20.80;38.70;;;;;;6248310;23;19915;-91
2022/07/04 22:40:02;;;;;;;;;;;20.80;38.80;;;;;;6224024;23;20100;-92
2022/07/04 22:42:30;;;;;;;;;;;20.70;38.90;;;;;;6251233;23;19922;-92
2022/07/04 22:44:56;;;;;;;;;;;20.70;39.00;;;;;;6223873;23;19939;-92
2022/07/04 22:47:23;;;;;;;;;;;20.60;39.10;;;;;;6248737;23;20252;-92
2022/07/04 22:49:50;;;;;;;;;;;20.50;39.10;;;;;;6250763;23;20236;-91
2022/07/04 22:52:17;;;;;;;;;;;20.50;39.10;;;;;;6247057;23;20050;-92
2022/07/04 22:54:52;;;;;;;;;;;20.40;39.10;;;;;;6222961;23;19910;-91
2022/07/04 22:57:18;;;;;;;;;;;20.40;39.20;;;;;;6250667;23;19922;-91
2022/07/04 22:59:49;;;;;;;;;;;20.30;39.30;;;;;;6224871;23;19907;-92
2022/07/04 23:02:16;;;;;;;;;;;20.30;39.50;;;;;;6252867;23;19937;-91
2022/07/04 23:04:42;;;;;;;;;;;20.20;39.60;;;;;;6200296;23;20046;-91
2022/07/04 23:07:07;;;;;;;;;;;20.20;39.80;;;;;;6225680;23;19904;-90
2022/07/04 23:09:33;;;;;;;;;;;20.10;39.90;;;;;;6249905;23;19915;-91
2022/07/04 23:11:58;;;;;;;;;;;20.10;40.00;;;;;;6249057;23;19935;-91
2022/07/04 23:14:24;;;;;;;;;;;20.00;40.10;;;;;;6246595;23;19931;-90
2022/07/04 23:16:49;;;;;;;;;;;19.90;40.10;;;;;;6247839;22;19907;-91
2022/07/04 23:19:15;;;;;;;;;;;19.90;40.30;;;;;;6247106;23;19911;-91
2022/07/04 23:21:40;;;;;;;;;;;19.80;40.40;;;;;;6245335;23;19915;-91
2022/07/04 23:24:06;;;;;;;;;;;19.80;40.60;;;;;;6246640;23;19915;-91
2022/07/04 23:26:31;;;;;;;;;;;19.70;40.60;;;;;;6247757;23;19912;-91
2022/07/04 23:28:57;;;;;;;;;;;19.60;40.80;;;;;;6246773;23;19912;-91
2022/07/04 23:31:22;;;;;;;;;;;19.50;40.90;;;;;;6248571;23;19908;-91
2022/07/04 23:33:48;;;;;;;;;;;19.50;41.10;;;;;;6246565;23;19919;-90
2022/07/04 23:36:13;;;;;;;;;;;19.40;41.10;;;;;;6242521;23;20316;-90
2022/07/04 23:38:39;;;;;;;;;;;19.30;41.10;;;;;;6247392;23;19915;-90
2022/07/04 23:41:07;;;;;;;;;;;19.30;41.10;;;;;;6247816;23;20267;-92
2022/07/04 23:43:36;;;;;;;;;;;19.20;41.20;;;;;;6245720;23;19911;-90
2022/07/04 23:46:02;;;;;;;;;;;19.10;41.30;;;;;;6247341;23;19913;-91
2022/07/04 23:48:28;;;;;;;;;;;19.10;41.30;;;;;;6221291;23;19973;-90
2022/07/04 23:50:53;;;;;;;;;;;19.00;41.40;;;;;;6246305;23;19910;-89
2022/07/04 23:53:19;;;;;;;;;;;19.00;41.50;;;;;;6244581;23;19940;-91
2022/07/04 23:55:44;;;;;;;;;;;18.90;41.60;;;;;;6247069;23;19904;-91
2022/07/04 23:58:10;;;;;;;;;;;18.80;41.70;;;;;;6248355;23;19920;-91
